Lee — WDI8777 — position and weather

sailwx.info

Track history (hours):
 
Tides and Currents Weather Stations Pressure Air Temp Water Temp Dewpoint Dewpoint Depression Visibility Wind Speed Wind Dir Waves Ship Positions

Lee

Owner: Carson Maritime, LLC, Saint Augustine, FL. More information available from US FCC via Universal Licensing System and Coast Guard Vessel Documentation Center.

Last reported at 2018-May-20 07:41 UTC. Time now 2018-May-22 21:33 UTC.
Position N 44°22' E 008°56'.

Length 11 m.

Type: Pleasure craft. MMSI: 367742070.

Date/timePositionNaut miles runAvg speedWind from/ knotsBaromVisibWave heightAir tempDewpointWater temp
2018-May-20 07:41N 44°22' E 008°56'1 7.5
2018-May-20 07:30N 44°23' E 008°56'2 0.1
2018-May-19 15:51N 44°25' E 008°55'0 0.4
2018-May-19 15:30N 44°25' E 008°55'0 0.2
2018-May-19 14:54N 44°25' E 008°55'4 3.2
2018-May-19 13:36N 44°23' E 009°01'320.3
2018-May-19 13:29N 44°23' E 008°57'2 0.0
2018-May-17 19:05N 44°25' E 008°55'0 0.0
2018-May-17 18:50N 44°25' E 008°55'0 0.0
2018-May-17 18:29N 44°25' E 008°55'0 0.0
2018-May-17 17:50N 44°25' E 008°55'0 0.0
2018-May-17 17:29N 44°25' E 008°55'0 0.0
2018-May-17 16:59N 44°25' E 008°55'0 0.0
2018-May-17 16:23N 44°25' E 008°55'0 0.0
2018-May-17 15:53N 44°25' E 008°55'0 0.0
2018-May-17 15:22N 44°25' E 008°55'0 0.0
2018-May-17 14:53N 44°25' E 008°55'0 0.0
2018-May-17 14:19N 44°25' E 008°55'0 0.0
2018-May-17 13:56N 44°25' E 008°55'0 0.0
2018-May-17 13:29N 44°25' E 008°55'0 0.0
2018-May-17 12:50N 44°25' E 008°55'0 0.0
2018-May-17 12:20N 44°25' E 008°55'0 0.0
2018-May-17 11:50N 44°25' E 008°55'0 0.0
2018-May-17 11:20N 44°25' E 008°55'0 0.0
2018-May-17 10:56N 44°25' E 008°55'0 0.0
2018-May-17 10:26N 44°25' E 008°55'0 0.0
2018-May-17 09:53N 44°25' E 008°55'0 0.0
2018-May-17 09:23N 44°25' E 008°55'0 0.0
2018-May-17 08:50N 44°25' E 008°55'0 0.0
2018-May-17 08:14N 44°25' E 008°55'0 0.0
2018-May-17 07:59N 44°25' E 008°55'0 0.0
2018-May-17 07:29N 44°25' E 008°55'0 0.0
2018-May-17 06:59N 44°25' E 008°55'0 0.0
2018-May-17 06:29N 44°25' E 008°55'0 0.0
2018-May-16 11:36N 44°25' E 008°55'0 0.1
2018-May-16 11:27N 44°25' E 008°55'1 2.3
2018-May-16 11:00N 44°24' E 008°56'611.0
2018-May-16 10:30N 44°25' E 008°48'2 0.1
2018-May-15 08:59N 44°25' E 008°50'3 5.3
2018-May-15 08:30N 44°24' E 008°47'1 2.4
2018-May-15 07:59N 44°25' E 008°46'0 0.2
2018-May-15 07:30N 44°25' E 008°46'0 0.2
2018-May-15 06:46N 44°25' E 008°46'0 1.1
2018-May-15 06:25N 44°25' E 008°47'  
Track history (hours):
 
Tides and Currents Weather Stations Pressure Air Temp Water Temp Dewpoint Dewpoint Depression Visibility Wind Speed Wind Dir Waves Ship Positions

Lee

Owner: Carson Maritime, LLC, Saint Augustine, FL. More information available from US FCC via Universal Licensing System and Coast Guard Vessel Documentation Center.

Last reported at 2018-May-20 07:41 UTC. Time now 2018-May-22 21:33 UTC.
Position N 44°22' E 008°56'.

Length 11 m.

Type: Pleasure craft. MMSI: 367742070.

Date/timePositionNaut miles runAvg speedWind from/ knotsBaromVisibWave heightAir tempDewpointWater temp
2018-May-20 07:41N 44°22' E 008°56'1 7.5
2018-May-20 07:30N 44°23' E 008°56'2 0.1
2018-May-19 15:51N 44°25' E 008°55'0 0.4
2018-May-19 15:30N 44°25' E 008°55'0 0.2
2018-May-19 14:54N 44°25' E 008°55'4 3.2
2018-May-19 13:36N 44°23' E 009°01'320.3
2018-May-19 13:29N 44°23' E 008°57'2 0.0
2018-May-17 19:05N 44°25' E 008°55'0 0.0
2018-May-17 18:50N 44°25' E 008°55'0 0.0
2018-May-17 18:29N 44°25' E 008°55'0 0.0
2018-May-17 17:50N 44°25' E 008°55'0 0.0
2018-May-17 17:29N 44°25' E 008°55'0 0.0
2018-May-17 16:59N 44°25' E 008°55'0 0.0
2018-May-17 16:23N 44°25' E 008°55'0 0.0
2018-May-17 15:53N 44°25' E 008°55'0 0.0
2018-May-17 15:22N 44°25' E 008°55'0 0.0
2018-May-17 14:53N 44°25' E 008°55'0 0.0
2018-May-17 14:19N 44°25' E 008°55'0 0.0
2018-May-17 13:56N 44°25' E 008°55'0 0.0
2018-May-17 13:29N 44°25' E 008°55'0 0.0
2018-May-17 12:50N 44°25' E 008°55'0 0.0
2018-May-17 12:20N 44°25' E 008°55'0 0.0
2018-May-17 11:50N 44°25' E 008°55'0 0.0
2018-May-17 11:20N 44°25' E 008°55'0 0.0
2018-May-17 10:56N 44°25' E 008°55'0 0.0
2018-May-17 10:26N 44°25' E 008°55'0 0.0
2018-May-17 09:53N 44°25' E 008°55'0 0.0
2018-May-17 09:23N 44°25' E 008°55'0 0.0
2018-May-17 08:50N 44°25' E 008°55'0 0.0
2018-May-17 08:14N 44°25' E 008°55'0 0.0
2018-May-17 07:59N 44°25' E 008°55'0 0.0
2018-May-17 07:29N 44°25' E 008°55'0 0.0
2018-May-17 06:59N 44°25' E 008°55'0 0.0
2018-May-17 06:29N 44°25' E 008°55'0 0.0
2018-May-16 11:36N 44°25' E 008°55'0 0.1
2018-May-16 11:27N 44°25' E 008°55'1 2.3
2018-May-16 11:00N 44°24' E 008°56'611.0
2018-May-16 10:30N 44°25' E 008°48'2 0.1
2018-May-15 08:59N 44°25' E 008°50'3 5.3
2018-May-15 08:30N 44°24' E 008°47'1 2.4
2018-May-15 07:59N 44°25' E 008°46'0 0.2
2018-May-15 07:30N 44°25' E 008°46'0 0.2
2018-May-15 06:46N 44°25' E 008°46'0 1.1
2018-May-15 06:25N 44°25' E 008°47'  

Dump ship's entire track history